Time;durP1;ratioP1;P1;durP2;ratioP2;P2;SDS_P1;SDS_P2;PMS_P1;PMS_P2;Temp;Humidity;BMP_temperature;BMP_pressure;BME280_temperature;BME280_humidity;BME280_pressure;Samples;Min_cycle;Max_cycle;Signal;HPM_P1;HPM_P2
2022/07/19 00:00:12;;;;;;;;;;;;;;;21.47;28.98;98584.78;4903158;29;1915;-75
2022/07/19 00:02:37;;;;;;;;;;;;;;;21.34;29.36;98576.06;4900961;29;998;-75
2022/07/19 00:05:03;;;;;;;;;;;;;;;21.43;29.15;98575.53;4903385;29;1193;-74
2022/07/19 00:07:28;;;;;;;;;;;;;;;21.21;29.51;98577.91;4921663;29;1167;-74
2022/07/19 00:09:54;;;;;;;;;;;;;;;21.16;29.66;98567.06;4921769;29;1024;-75
2022/07/19 00:12:19;;;;;;;;;;;;;;;21.16;29.55;98567.84;4921794;29;922;-74
2022/07/19 00:14:45;;;;;;;;;;;;;;;21.29;29.33;98580.16;4921685;29;994;-74
2022/07/19 00:17:10;;;;;;;;;;;;;;;21.30;29.68;98578.19;4903695;29;982;-74
2022/07/19 00:19:36;;;;;;;;;;;;;;;21.22;29.38;98574.63;4921608;29;1907;-75
2022/07/19 00:22:01;;;;;;;;;;;;;;;21.25;29.34;98570.94;4921391;29;983;-74
2022/07/19 00:24:26;;;;;;;;;;;;;;;21.14;29.35;98573.16;4921979;29;917;-75
2022/07/19 00:26:52;;;;;;;;;;;;;;;21.17;29.83;98563.78;4921669;29;983;-75
2022/07/19 00:29:17;;;;;;;;;;;;;;;21.00;29.72;98562.06;4921655;29;942;-75
2022/07/19 00:31:43;;;;;;;;;;;;;;;20.99;30.12;98572.56;4921312;29;923;-74
2022/07/19 00:34:08;;;;;;;;;;;;;;;21.08;29.90;98564.31;4921442;29;947;-74
2022/07/19 00:36:34;;;;;;;;;;;;;;;21.12;29.75;98567.09;4921277;29;926;-74
2022/07/19 00:38:59;;;;;;;;;;;;;;;21.20;29.28;98568.59;4903417;29;1980;-74
2022/07/19 00:41:25;;;;;;;;;;;;;;;21.21;29.19;98567.38;4921140;29;901;-74
2022/07/19 00:43:51;;;;;;;;;;;;;;;21.21;29.48;98564.53;4921231;29;947;-74
2022/07/19 00:46:20;;;;;;;;;;;;;;;21.63;29.39;98565.09;4920073;29;1231;-74
2022/07/19 00:48:47;;;;;;;;;;;;;;;21.72;28.97;98571.00;4920883;29;1021;-75
2022/07/19 00:51:12;;;;;;;;;;;;;;;21.49;29.24;98570.97;4899805;29;974;-75
2022/07/19 00:53:38;;;;;;;;;;;;;;;21.45;29.37;98561.75;4900199;29;972;-72
2022/07/19 00:56:04;;;;;;;;;;;;;;;21.30;29.16;98559.19;4900049;29;997;-74
2022/07/19 00:58:30;;;;;;;;;;;;;;;21.15;29.53;98560.59;4899959;29;1970;-74
2022/07/19 01:00:55;;;;;;;;;;;;;;;21.27;29.37;98568.47;4899506;29;1021;-74
2022/07/19 01:03:20;;;;;;;;;;;;;;;21.37;29.60;98565.94;4899860;29;1301;-74
2022/07/19 01:05:46;;;;;;;;;;;;;;;21.31;29.44;98566.44;4899594;29;1132;-74
2022/07/19 01:08:12;;;;;;;;;;;;;;;21.15;29.83;98560.59;4899965;29;1047;-74
2022/07/19 01:10:37;;;;;;;;;;;;;;;21.25;29.39;98558.84;4883899;29;1036;-74
2022/07/19 01:13:03;;;;;;;;;;;;;;;21.14;29.91;98558.19;4899890;29;968;-74
2022/07/19 01:15:28;;;;;;;;;;;;;;;21.29;29.29;98554.69;4868071;29;966;-74
2022/07/19 01:17:54;;;;;;;;;;;;;;;21.28;29.45;98558.75;4899591;29;968;-74
2022/07/19 01:20:19;;;;;;;;;;;;;;;21.12;29.86;98550.13;4899305;29;1977;-74
2022/07/19 01:22:45;;;;;;;;;;;;;;;21.10;29.51;98546.94;4914682;29;1094;-74
2022/07/19 01:25:10;;;;;;;;;;;;;;;21.15;29.44;98549.28;4920674;29;881;-74
2022/07/19 01:27:43;;;;;;;;;;;;;;;21.24;29.62;98546.72;4920246;29;974;-74
2022/07/19 01:30:10;;;;;;;;;;;;;;;21.27;29.67;98550.69;4920229;29;978;-74
2022/07/19 01:32:35;;;;;;;;;;;;;;;21.17;29.50;98549.66;4920172;29;1016;-75
2022/07/19 01:35:01;;;;;;;;;;;;;;;21.17;29.36;98552.47;4920511;29;881;-74
2022/07/19 01:37:26;;;;;;;;;;;;;;;21.11;29.40;98548.53;4920345;29;993;-74
2022/07/19 01:39:56;;;;;;;;;;;;;;;21.14;29.29;98547.69;4920186;29;1981;-74
2022/07/19 01:42:23;;;;;;;;;;;;;;;21.17;29.41;98546.81;4920072;29;950;-74
2022/07/19 01:44:48;;;;;;;;;;;;;;;21.24;29.17;98549.53;4920179;29;965;-74
2022/07/19 01:47:14;;;;;;;;;;;;;;;21.45;29.40;98539.91;4920244;29;1015;-74
2022/07/19 01:49:39;;;;;;;;;;;;;;;21.56;29.29;98546.19;4920025;29;852;-74
2022/07/19 01:52:05;;;;;;;;;;;;;;;21.35;29.68;98552.22;4898918;29;1069;-74
2022/07/19 01:54:30;;;;;;;;;;;;;;;21.39;29.46;98546.50;4898732;29;928;-74
2022/07/19 01:56:56;;;;;;;;;;;;;;;21.24;29.66;98549.53;4898830;29;1016;-74
2022/07/19 01:59:21;;;;;;;;;;;;;;;21.25;29.45;98545.47;4882939;29;1907;-73
2022/07/19 02:01:47;;;;;;;;;;;;;;;21.20;29.85;98543.13;4898604;29;1037;-74
2022/07/19 02:04:12;;;;;;;;;;;;;;;21.35;29.42;98545.75;4898959;29;919;-74
2022/07/19 02:06:37;;;;;;;;;;;;;;;21.36;29.48;98544.53;4898900;29;1089;-74
2022/07/19 02:09:03;;;;;;;;;;;;;;;21.35;29.22;98546.56;4899125;29;1021;-74
2022/07/19 02:11:37;;;;;;;;;;;;;;;21.12;29.64;98550.13;4898716;29;942;-74
2022/07/19 02:14:03;;;;;;;;;;;;;;;20.93;29.99;98536.69;4898599;29;923;-74
2022/07/19 02:16:29;;;;;;;;;;;;;;;21.04;29.86;98543.78;4898379;29;882;-74
2022/07/19 02:18:54;;;;;;;;;;;;;;;20.98;29.96;98539.81;4852243;29;1907;-74
2022/07/19 02:21:20;;;;;;;;;;;;;;;21.26;29.39;98544.25;4898595;29;947;-74
2022/07/19 02:23:45;;;;;;;;;;;;;;;21.30;29.25;98553.50;4914971;29;935;-74
2022/07/19 02:26:11;;;;;;;;;;;;;;;21.27;29.13;98545.84;4920385;29;943;-74
2022/07/19 02:28:36;;;;;;;;;;;;;;;21.30;29.10;98545.03;4919572;29;951;-74
2022/07/19 02:31:01;;;;;;;;;;;;;;;21.32;28.98;98548.22;4919781;29;885;-74
2022/07/19 02:33:27;;;;;;;;;;;;;;;21.19;29.57;98544.38;4919494;29;1133;-74
2022/07/19 02:35:52;;;;;;;;;;;;;;;21.09;29.69;98545.34;4919470;29;862;-74
2022/07/19 02:38:18;;;;;;;;;;;;;;;20.97;29.49;98543.88;4919740;29;1914;-74
2022/07/19 02:40:43;;;;;;;;;;;;;;;21.19;29.14;98550.03;4901822;29;1070;-74
2022/07/19 02:43:09;;;;;;;;;;;;;;;21.06;29.17;98552.66;4919467;29;930;-74
2022/07/19 02:45:34;;;;;;;;;;;;;;;21.24;29.19;98551.56;4901735;29;914;-74
2022/07/19 02:48:01;;;;;;;;;;;;;;;21.36;28.94;98553.81;4920022;29;913;-74
2022/07/19 02:50:26;;;;;;;;;;;;;;;21.68;28.84;98558.13;4919311;29;968;-74
2022/07/19 02:52:52;;;;;;;;;;;;;;;21.91;28.68;98554.44;4919446;29;938;-74
2022/07/19 02:55:17;;;;;;;;;;;;;;;21.50;28.96;98559.25;4918346;29;1080;-74
2022/07/19 02:57:43;;;;;;;;;;;;;;;21.23;29.25;98555.63;4919832;29;975;-74
2022/07/19 03:00:12;;;;;;;;;;;;;;;21.22;29.28;98560.47;4919133;29;1964;-74
2022/07/19 03:02:38;;;;;;;;;;;;;;;21.25;29.37;98553.97;4919508;29;913;-74
2022/07/19 03:05:04;;;;;;;;;;;;;;;20.99;29.65;98557.63;4917976;29;1021;-75
2022/07/19 03:07:29;;;;;;;;;;;;;;;21.19;29.35;98561.34;4919392;29;851;-74
2022/07/19 03:09:54;;;;;;;;;;;;;;;21.17;29.64;98560.97;4913425;29;1096;-74
2022/07/19 03:12:20;;;;;;;;;;;;;;;21.29;29.12;98560.34;4908607;29;1169;-74
2022/07/19 03:14:46;;;;;;;;;;;;;;;21.04;29.56;98568.47;4909477;29;1244;-75
2022/07/19 03:17:11;;;;;;;;;;;;;;;21.14;29.62;98564.66;4909971;29;1197;-73
2022/07/19 03:19:37;;;;;;;;;;;;;;;21.24;29.32;98562.88;4908961;29;1996;-74
2022/07/19 03:22:02;;;;;;;;;;;;;;;21.25;29.37;98570.94;4909604;29;1359;-73
2022/07/19 03:24:27;;;;;;;;;;;;;;;21.11;29.52;98564.72;4909755;29;1264;-73
2022/07/19 03:26:53;;;;;;;;;;;;;;;21.15;29.09;98563.44;4914818;29;1216;-74
2022/07/19 03:29:18;;;;;;;;;;;;;;;21.20;29.40;98565.78;4901253;29;993;-74
2022/07/19 03:31:44;;;;;;;;;;;;;;;20.97;29.60;98572.19;4901693;29;1078;-74
2022/07/19 03:34:09;;;;;;;;;;;;;;;21.19;29.33;98560.53;4880633;29;1103;-74
2022/07/19 03:36:35;;;;;;;;;;;;;;;21.26;29.18;98561.22;4892364;29;1434;-74
2022/07/19 03:39:00;;;;;;;;;;;;;;;21.25;28.96;98565.28;4890525;29;1911;-74
2022/07/19 03:41:26;;;;;;;;;;;;;;;21.32;29.05;98562.38;4891760;29;1304;-74
2022/07/19 03:43:51;;;;;;;;;;;;;;;21.48;29.29;98556.03;4863254;29;1222;-74
2022/07/19 03:46:16;;;;;;;;;;;;;;;21.82;28.72;98561.50;4863500;29;963;-74
2022/07/19 03:48:42;;;;;;;;;;;;;;;21.43;29.25;98558.56;4863826;29;1006;-74
2022/07/19 03:51:07;;;;;;;;;;;;;;;21.41;29.22;98566.69;4863527;29;1056;-75
2022/07/19 03:53:34;;;;;;;;;;;;;;;21.37;29.17;98574.44;4863754;29;987;-74
2022/07/19 03:56:00;;;;;;;;;;;;;;;21.24;29.36;98569.34;4863603;29;979;-74
2022/07/19 03:58:25;;;;;;;;;;;;;;;21.35;29.29;98565.56;4808551;29;1908;-74
2022/07/19 04:00:51;;;;;;;;;;;;;;;21.51;28.96;98565.72;4821434;29;980;-74
2022/07/19 04:03:16;;;;;;;;;;;;;;;21.35;29.30;98569.22;4826525;29;974;-74
2022/07/19 04:05:42;;;;;;;;;;;;;;;21.23;29.50;98579.06;4826357;29;1123;-74
2022/07/19 04:08:07;;;;;;;;;;;;;;;21.35;29.23;98565.56;4826860;29;1080;-73
2022/07/19 04:10:32;;;;;;;;;;;;;;;21.33;29.37;98574.50;4826724;29;1004;-74
2022/07/19 04:12:58;;;;;;;;;;;;;;;21.17;29.51;98560.97;4826733;29;959;-74
2022/07/19 04:15:23;;;;;;;;;;;;;;;21.30;29.52;98573.31;4826647;29;945;-73
2022/07/19 04:17:49;;;;;;;;;;;;;;;21.39;29.19;98578.41;4826230;29;967;-74
2022/07/19 04:20:14;;;;;;;;;;;;;;;21.51;29.29;98577.03;4826302;29;1911;-75
2022/07/19 04:22:40;;;;;;;;;;;;;;;21.44;29.13;98565.81;4826533;29;991;-73
2022/07/19 04:25:05;;;;;;;;;;;;;;;21.17;29.54;98575.13;4826269;29;957;-74
2022/07/19 04:27:31;;;;;;;;;;;;;;;21.36;29.35;98575.66;4826634;29;950;-74
2022/07/19 04:29:56;;;;;;;;;;;;;;;21.39;29.21;98580.47;4834327;29;1021;-74
2022/07/19 04:32:22;;;;;;;;;;;;;;;21.27;29.60;98579.81;4844669;29;1114;-73
2022/07/19 04:34:47;;;;;;;;;;;;;;;21.37;29.30;98574.44;4825684;29;1572;-74
2022/07/19 04:37:13;;;;;;;;;;;;;;;21.19;29.65;98571.84;4825662;29;1010;-74
2022/07/19 04:39:38;;;;;;;;;;;;;;;21.16;29.92;98573.53;4807718;29;1907;-73
2022/07/19 04:42:04;;;;;;;;;;;;;;;21.04;30.28;98571.28;4807842;29;958;-74
2022/07/19 04:44:29;;;;;;;;;;;;;;;21.11;29.84;98571.16;4807328;29;974;-73
2022/07/19 04:46:55;;;;;;;;;;;;;;;21.28;29.58;98578.56;4807950;29;997;-73
2022/07/19 04:49:20;;;;;;;;;;;;;;;21.16;29.92;98573.53;4808197;29;964;-74
2022/07/19 04:51:46;;;;;;;;;;;;;;;21.22;29.94;98583.13;4807894;29;917;-74
2022/07/19 04:54:11;;;;;;;;;;;;;;;21.41;29.55;98578.00;4807446;29;1000;-73
2022/07/19 04:56:36;;;;;;;;;;;;;;;21.16;29.78;98579.19;4807592;29;993;-73
2022/07/19 04:59:03;;;;;;;;;;;;;;;21.28;29.46;98581.41;4807755;29;1975;-74
2022/07/19 05:01:30;;;;;;;;;;;;;;;21.22;29.66;98585.94;4834094;29;988;-74
2022/07/19 05:03:56;;;;;;;;;;;;;;;21.45;29.24;98590.06;4843815;29;1032;-73
2022/07/19 05:06:22;;;;;;;;;;;;;;;21.35;29.54;98582.53;4793960;29;1049;-74
2022/07/19 05:08:47;;;;;;;;;;;;;;;21.39;29.29;98586.13;4789394;29;979;-75
2022/07/19 05:11:13;;;;;;;;;;;;;;;21.30;29.61;98583.84;4789587;29;1119;-74
2022/07/19 05:13:38;;;;;;;;;;;;;;;21.12;29.87;98589.75;4806839;29;1252;-74
2022/07/19 05:16:04;;;;;;;;;;;;;;;21.28;29.99;98587.06;4811866;29;997;-74
2022/07/19 05:18:29;;;;;;;;;;;;;;;21.39;29.39;98586.13;4861995;29;1911;-74
2022/07/19 05:20:54;;;;;;;;;;;;;;;21.20;30.01;98591.25;4862366;29;1152;-74
2022/07/19 05:23:20;;;;;;;;;;;;;;;21.40;29.52;98587.72;4861953;29;1029;-74
2022/07/19 05:25:45;;;;;;;;;;;;;;;21.28;29.75;98587.06;4862102;29;939;-73
2022/07/19 05:28:11;;;;;;;;;;;;;;;21.38;29.77;98584.53;4861725;29;960;-74
2022/07/19 05:30:36;;;;;;;;;;;;;;;21.40;29.80;98584.88;4825156;29;1077;-73
2022/07/19 05:33:02;;;;;;;;;;;;;;;21.36;29.78;98592.66;4825484;29;966;-75
2022/07/19 05:35:27;;;;;;;;;;;;;;;21.29;29.72;98588.66;4825407;29;969;-74
2022/07/19 05:37:52;;;;;;;;;;;;;;;21.32;29.65;98590.66;4838525;29;993;-73
2022/07/19 05:40:18;;;;;;;;;;;;;;;21.45;29.61;98593.72;4843128;29;1907;-73
2022/07/19 05:42:43;;;;;;;;;;;;;;;21.35;29.79;98580.53;4843474;29;1044;-73
2022/07/19 05:45:09;;;;;;;;;;;;;;;21.29;29.97;98591.50;4843051;29;979;-74
2022/07/19 05:47:35;;;;;;;;;;;;;;;21.41;30.11;98595.78;4843755;29;984;-73
2022/07/19 05:50:00;;;;;;;;;;;;;;;21.46;29.99;98583.19;4842576;29;959;-73
2022/07/19 05:52:26;;;;;;;;;;;;;;;21.20;30.32;98585.59;4843711;29;962;-74
2022/07/19 05:54:51;;;;;;;;;;;;;;;21.28;30.04;98589.88;4843126;29;1035;-74
2022/07/19 05:57:16;;;;;;;;;;;;;;;21.18;30.33;98588.03;4843197;29;1026;-73
2022/07/19 05:59:42;;;;;;;;;;;;;;;21.45;30.08;98590.06;4843267;29;1907;-73
2022/07/19 06:02:07;;;;;;;;;;;;;;;21.38;29.97;98593.00;4871425;29;968;-74
2022/07/19 06:04:33;;;;;;;;;;;;;;;21.45;29.80;98595.72;4882162;29;919;-73
2022/07/19 06:06:58;;;;;;;;;;;;;;;21.11;30.28;98595.84;4881875;29;1034;-74
2022/07/19 06:09:24;;;;;;;;;;;;;;;21.23;30.36;98579.06;4882299;29;1083;-74
2022/07/19 06:11:51;;;;;;;;;;;;;;;21.24;30.33;98586.34;4882072;29;1182;-73
2022/07/19 06:14:16;;;;;;;;;;;;;;;21.28;30.05;98595.56;4882129;29;992;-74
2022/07/19 06:16:42;;;;;;;;;;;;;;;21.44;30.08;98589.25;4882471;29;1022;-74
2022/07/19 06:19:07;;;;;;;;;;;;;;;21.30;30.08;98595.97;4882017;29;1899;-73
2022/07/19 06:21:33;;;;;;;;;;;;;;;21.32;29.97;98596.34;4882237;29;936;-74
2022/07/19 06:23:58;;;;;;;;;;;;;;;21.46;30.11;98597.34;4882087;29;1070;-74
2022/07/19 06:26:25;;;;;;;;;;;;;;;21.43;30.10;98592.53;4882405;29;927;-74
2022/07/19 06:28:50;;;;;;;;;;;;;;;21.19;30.33;98589.66;4882461;29;982;-74
2022/07/19 06:31:19;;;;;;;;;;;;;;;21.37;30.03;98594.25;4882064;29;919;-74
2022/07/19 06:33:45;;;;;;;;;;;;;;;21.28;30.15;98595.56;4882168;29;918;-74
2022/07/19 06:36:10;;;;;;;;;;;;;;;21.43;30.19;98589.69;4849032;29;982;-73
2022/07/19 06:38:36;;;;;;;;;;;;;;;21.38;29.96;98593.81;4881929;29;1976;-74
2022/07/19 06:41:01;;;;;;;;;;;;;;;21.32;30.04;98593.50;4881661;29;895;-74
2022/07/19 06:43:27;;;;;;;;;;;;;;;21.41;29.79;98589.34;4865473;29;878;-73
2022/07/19 06:45:52;;;;;;;;;;;;;;;21.32;30.26;98593.50;4882140;29;918;-74
2022/07/19 06:48:18;;;;;;;;;;;;;;;22.07;29.98;98591.38;4881976;29;894;-73
2022/07/19 06:50:43;;;;;;;;;;;;;;;22.10;30.98;98596.19;4879592;29;975;-74
2022/07/19 06:53:09;;;;;;;;;;;;;;;21.76;31.62;98587.91;4881895;29;946;-74
2022/07/19 06:55:35;;;;;;;;;;;;;;;21.49;31.89;98596.47;4882087;29;865;-74
2022/07/19 06:58:00;;;;;;;;;;;;;;;21.59;31.62;98598.31;4881719;29;1093;-74
2022/07/19 07:00:26;;;;;;;;;;;;;;;21.51;31.47;98599.69;4882185;29;1990;-73
2022/07/19 07:02:51;;;;;;;;;;;;;;;21.51;31.38;98594.03;4852330;29;1044;-74
2022/07/19 07:05:17;;;;;;;;;;;;;;;21.43;31.14;98598.19;4885568;29;1134;-73
2022/07/19 07:07:42;;;;;;;;;;;;;;;21.36;31.34;98604.78;4884967;29;860;-74
2022/07/19 07:10:08;;;;;;;;;;;;;;;21.52;30.79;98601.28;4884992;29;901;-73
2022/07/19 07:12:33;;;;;;;;;;;;;;;21.48;30.71;98601.34;4885188;29;933;-74
2022/07/19 07:14:59;;;;;;;;;;;;;;;21.43;30.63;98610.31;4885409;29;896;-74
2022/07/19 07:17:24;;;;;;;;;;;;;;;21.62;30.09;98610.84;4845550;29;993;-74
2022/07/19 07:19:50;;;;;;;;;;;;;;;21.55;30.05;98606.06;4845511;29;1903;-73
2022/07/19 07:22:15;;;;;;;;;;;;;;;21.51;30.00;98605.34;4845677;29;1023;-73
2022/07/19 07:24:41;;;;;;;;;;;;;;;21.69;29.72;98617.16;4845553;29;1056;-73
2022/07/19 07:27:06;;;;;;;;;;;;;;;21.37;30.23;98605.56;4845564;29;1172;-74
2022/07/19 07:29:31;;;;;;;;;;;;;;;20.80;29.75;98506.19;4845987;29;1003;-73
2022/07/19 07:31:57;;;;;;;;;;;;;;;21.42;29.95;98613.59;4845939;29;1012;-74
2022/07/19 07:34:22;;;;;;;;;;;;;;;21.32;29.76;98610.47;4845545;29;1101;-74
2022/07/19 07:36:48;;;;;;;;;;;;;;;21.41;29.64;98609.16;4845241;29;947;-74
2022/07/19 07:39:13;;;;;;;;;;;;;;;21.44;29.50;98616.78;4845291;29;1972;-73
2022/07/19 07:41:39;;;;;;;;;;;;;;;21.33;29.55;98612.09;4845272;29;1045;-73
2022/07/19 07:44:04;;;;;;;;;;;;;;;21.19;29.65;98600.97;4845411;29;1057;-74
2022/07/19 07:46:30;;;;;;;;;;;;;;;21.36;29.24;98609.63;4845206;29;1261;-73
2022/07/19 07:48:55;;;;;;;;;;;;;;;21.35;29.64;98608.00;4873758;29;917;-74
2022/07/19 07:51:21;;;;;;;;;;;;;;;21.36;29.49;98609.63;4884256;29;958;-74
2022/07/19 07:53:46;;;;;;;;;;;;;;;21.21;29.35;98609.03;4884737;29;969;-74
2022/07/19 07:56:12;;;;;;;;;;;;;;;21.44;29.26;98611.09;4885058;29;991;-73
2022/07/19 07:58:37;;;;;;;;;;;;;;;21.37;29.09;98605.56;4884365;29;1899;-73
2022/07/19 08:01:03;;;;;;;;;;;;;;;21.33;29.22;98612.09;4884592;29;894;-74
2022/07/19 08:03:28;;;;;;;;;;;;;;;21.43;28.92;98603.84;4884282;29;910;-73
2022/07/19 08:05:54;;;;;;;;;;;;;;;21.04;29.56;98610.91;4883964;29;1267;-74
2022/07/19 08:08:19;;;;;;;;;;;;;;;21.30;29.25;98595.97;4884236;29;881;-73
2022/07/19 08:10:45;;;;;;;;;;;;;;;21.25;29.22;98604.13;4883877;29;887;-74
2022/07/19 08:13:10;;;;;;;;;;;;;;;21.35;29.02;98614.50;4883318;29;1009;-74
2022/07/19 08:15:36;;;;;;;;;;;;;;;21.22;29.23;98611.41;4884334;29;978;-73
2022/07/19 08:18:02;;;;;;;;;;;;;;;21.22;29.25;98617.09;4844552;29;926;-73
2022/07/19 08:20:27;;;;;;;;;;;;;;;21.32;28.91;98604.81;4844799;29;1911;-74
2022/07/19 08:22:52;;;;;;;;;;;;;;;21.39;28.93;98603.09;4844602;29;1048;-74
2022/07/19 08:25:18;;;;;;;;;;;;;;;21.29;29.02;98599.97;4844551;29;1013;-73
2022/07/19 08:27:43;;;;;;;;;;;;;;;21.36;29.23;98598.31;4829302;29;997;-74
2022/07/19 08:30:09;;;;;;;;;;;;;;;21.47;28.69;98593.28;4844405;29;1055;-74
2022/07/19 08:32:35;;;;;;;;;;;;;;;21.27;29.27;98607.31;4844459;29;955;-73
2022/07/19 08:35:00;;;;;;;;;;;;;;;21.32;28.79;98599.16;4844694;29;1040;-74
2022/07/19 08:37:25;;;;;;;;;;;;;;;21.13;29.40;98605.50;4844599;29;992;-73
2022/07/19 08:39:51;;;;;;;;;;;;;;;21.21;29.03;98598.50;4844568;29;1907;-74
2022/07/19 08:42:20;;;;;;;;;;;;;;;21.12;29.17;98601.06;4846644;29;1139;-74
2022/07/19 08:44:47;;;;;;;;;;;;;;;21.24;29.33;98599.66;4844618;29;892;-74
2022/07/19 08:47:12;;;;;;;;;;;;;;;21.23;29.26;98598.06;4826002;29;948;-74
2022/07/19 08:49:37;;;;;;;;;;;;;;;21.27;28.92;98590.34;4853677;29;887;-74
2022/07/19 08:52:04;;;;;;;;;;;;;;;21.26;29.27;98600.06;4844213;29;1079;-74
2022/07/19 08:54:29;;;;;;;;;;;;;;;21.30;28.78;98598.81;4825686;29;903;-74
2022/07/19 08:59:39;;;;;;;;;;;;;;;21.19;29.02;98594.50;4825795;29;1903;-73
2022/07/19 09:02:04;;;;;;;;;;;;;;;21.21;29.07;98592.84;4826169;29;1047;-74
2022/07/19 09:04:30;;;;;;;;;;;;;;;21.35;28.98;98596.69;4825924;29;930;-73
2022/07/19 09:06:56;;;;;;;;;;;;;;;21.24;28.99;98596.84;4825439;29;1212;-74
2022/07/19 09:09:27;;;;;;;;;;;;;;;21.16;29.10;98590.50;4825532;29;974;-73
2022/07/19 09:11:53;;;;;;;;;;;;;;;21.17;29.01;98586.44;4825941;29;1011;-74
2022/07/19 09:14:20;;;;;;;;;;;;;;;21.14;29.14;98581.66;4825542;29;886;-73
2022/07/19 09:16:56;;;;;;;;;;;;;;;21.21;29.01;98575.88;4825490;29;1074;-74
2022/07/19 09:19:22;;;;;;;;;;;;;;;21.25;28.92;98573.78;4824860;29;1989;-73
2022/07/19 09:21:51;;;;;;;;;;;;;;;21.57;28.41;98592.28;4825738;29;1034;-73
2022/07/19 09:24:17;;;;;;;;;;;;;;;21.16;29.07;98579.19;4843220;29;934;-74
2022/07/19 09:26:56;;;;;;;;;;;;;;;21.18;29.01;98575.91;4843866;29;999;-73
2022/07/19 09:29:21;;;;;;;;;;;;;;;21.06;29.48;98574.50;4825095;29;927;-73
2022/07/19 09:32:04;;;;;;;;;;;;;;;21.14;29.04;98570.34;4788901;29;941;-74
2022/07/19 09:34:30;;;;;;;;;;;;;;;21.32;28.62;98570.84;4771102;30;931;-74
2022/07/19 09:37:14;;;;;;;;;;;;;;;21.41;28.57;98578.81;4753460;30;1053;-74
2022/07/19 09:39:41;;;;;;;;;;;;;;;21.18;29.08;98576.72;4753075;30;1997;-74
2022/07/19 09:42:09;;;;;;;;;;;;;;;21.25;28.91;98579.44;4753267;30;1007;-73
2022/07/19 09:44:35;;;;;;;;;;;;;;;21.19;29.02;98577.50;4753295;30;968;-74
2022/07/19 09:47:00;;;;;;;;;;;;;;;20.95;29.31;98579.50;4753532;30;1077;-74
2022/07/19 09:49:26;;;;;;;;;;;;;;;21.18;29.24;98576.72;4753041;30;1088;-74
2022/07/19 09:51:52;;;;;;;;;;;;;;;21.12;29.04;98584.09;4753672;30;1039;-74
2022/07/19 09:54:21;;;;;;;;;;;;;;;21.24;28.83;98585.50;4752817;30;953;-74
2022/07/19 09:56:47;;;;;;;;;;;;;;;21.37;28.56;98582.94;4753270;30;987;-74
2022/07/19 09:59:12;;;;;;;;;;;;;;;21.05;29.13;98576.53;4753568;30;1979;-73
2022/07/19 10:01:38;;;;;;;;;;;;;;;21.24;28.71;98580.69;4771906;29;1240;-74
2022/07/19 10:04:04;;;;;;;;;;;;;;;21.26;28.94;98581.03;4806632;29;1002;-73
2022/07/19 10:06:29;;;;;;;;;;;;;;;21.16;28.98;98584.84;4840074;29;1129;-73
2022/07/19 10:08:56;;;;;;;;;;;;;;;21.20;28.94;98574.28;4878885;29;985;-73
2022/07/19 10:11:21;;;;;;;;;;;;;;;21.07;29.12;98571.22;4889142;29;1158;-74
2022/07/19 10:13:48;;;;;;;;;;;;;;;21.03;29.01;98566.84;4910333;29;1181;-74
2022/07/19 10:16:15;;;;;;;;;;;;;;;21.22;29.06;98571.81;4905229;29;1605;-74
2022/07/19 10:18:44;;;;;;;;;;;;;;;21.23;29.07;98579.06;4887985;29;1982;-74
2022/07/19 10:21:09;;;;;;;;;;;;;;;21.21;28.87;98575.06;4842858;29;1297;-74
2022/07/19 10:23:35;;;;;;;;;;;;;;;21.11;29.02;98571.16;4842526;29;1100;-73
2022/07/19 10:26:01;;;;;;;;;;;;;;;21.32;28.69;98576.53;4842801;29;1093;-73
2022/07/19 10:28:33;;;;;;;;;;;;;;;21.35;28.87;98574.03;4843009;29;889;-74
2022/07/19 10:30:59;;;;;;;;;;;;;;;20.92;29.13;98571.88;4827448;29;950;-74
2022/07/19 10:33:34;;;;;;;;;;;;;;;21.11;29.10;98565.50;4827706;29;959;-74
2022/07/19 10:36:18;;;;;;;;;;;;;;;21.15;29.14;98566.25;4844384;29;931;-74
2022/07/19 10:39:09;;;;;;;;;;;;;;;21.20;28.91;98562.94;4846272;29;1907;-73
2022/07/19 10:41:35;;;;;;;;;;;;;;;21.08;29.41;98549.38;4791763;30;1117;-74
2022/07/19 10:44:07;;;;;;;;;;;;;;;21.30;28.82;98550.69;4791747;30;1392;-74
2022/07/19 10:46:33;;;;;;;;;;;;;;;21.22;28.98;98551.19;4791597;30;1006;-73
2022/07/19 10:48:59;;;;;;;;;;;;;;;20.96;29.56;98544.31;4795600;29;991;-74
2022/07/19 10:51:32;;;;;;;;;;;;;;;21.19;29.33;98541.53;4795248;29;1007;-74
2022/07/19 10:54:06;;;;;;;;;;;;;;;21.12;29.18;98535.97;4795979;29;969;-74
2022/07/19 10:56:34;;;;;;;;;;;;;;;21.01;29.47;98527.66;4809480;29;979;-74
2022/07/19 10:59:02;;;;;;;;;;;;;;;21.15;29.15;98529.47;4809742;29;1977;-75
2022/07/19 11:01:28;;;;;;;;;;;;;;;21.37;28.92;98531.97;4809559;29;1071;-74
2022/07/19 11:03:54;;;;;;;;;;;;;;;21.12;29.39;98533.16;4809994;29;916;-74
2022/07/19 11:06:20;;;;;;;;;;;;;;;21.14;29.37;98525.06;4794194;29;1099;-74
2022/07/19 11:08:46;;;;;;;;;;;;;;;21.27;29.07;98523.19;4809687;29;997;-74
2022/07/19 11:11:15;;;;;;;;;;;;;;;21.49;28.87;98520.81;4809723;29;921;-74
2022/07/19 11:13:47;;;;;;;;;;;;;;;21.47;28.89;98528.94;4809316;29;1070;-74
2022/07/19 11:16:13;;;;;;;;;;;;;;;21.30;29.09;98527.25;4773061;30;996;-73
2022/07/19 11:18:38;;;;;;;;;;;;;;;21.13;29.42;98522.63;4784529;29;1899;-73
2022/07/19 11:21:04;;;;;;;;;;;;;;;21.20;29.15;98511.22;4791313;29;995;-73
2022/07/19 11:23:30;;;;;;;;;;;;;;;21.02;29.31;98519.97;4808582;29;940;-73
2022/07/19 11:26:05;;;;;;;;;;;;;;;21.15;29.25;98514.53;4842504;29;919;-74
2022/07/19 11:28:30;;;;;;;;;;;;;;;21.01;29.93;98526.88;4845902;29;991;-73
2022/07/19 11:30:56;;;;;;;;;;;;;;;21.09;29.48;98522.72;4830174;29;899;-74
2022/07/19 11:33:21;;;;;;;;;;;;;;;21.27;29.18;98516.75;4841937;29;1210;-73
2022/07/19 11:35:53;;;;;;;;;;;;;;;21.07;29.53;98511.00;4836154;29;1325;-74
2022/07/19 11:38:19;;;;;;;;;;;;;;;21.25;29.21;98508.69;4842766;29;1238;-73
2022/07/19 11:40:44;;;;;;;;;;;;;;;21.20;29.15;98516.88;4821336;29;1991;-74
2022/07/19 11:43:10;;;;;;;;;;;;;;;21.25;29.34;98514.34;4835733;29;1233;-73
2022/07/19 11:45:42;;;;;;;;;;;;;;;21.23;29.41;98504.69;4834880;29;1341;-73
2022/07/19 11:48:07;;;;;;;;;;;;;;;21.04;29.55;98514.72;4848637;29;1341;-73
2022/07/19 11:50:34;;;;;;;;;;;;;;;21.46;29.05;98507.53;4853544;29;1328;-73
2022/07/19 11:52:59;;;;;;;;;;;;;;;21.30;29.09;98505.41;4865133;29;1262;-73
2022/07/19 11:55:26;;;;;;;;;;;;;;;21.35;29.27;98506.09;4912360;29;1224;-73
2022/07/19 11:57:52;;;;;;;;;;;;;;;21.19;29.22;98499.09;4911157;29;1142;-74
2022/07/19 12:00:17;;;;;;;;;;;;;;;20.96;29.98;98496.25;4893657;29;1934;-73
2022/07/19 12:02:57;;;;;;;;;;;;;;;21.13;29.63;98495.13;4895309;29;1237;-74
2022/07/19 12:05:25;;;;;;;;;;;;;;;21.04;29.61;98503.41;4911651;29;1189;-74
2022/07/19 12:07:51;;;;;;;;;;;;;;;20.95;29.88;98505.97;4908221;29;1252;-73
2022/07/19 12:10:33;;;;;;;;;;;;;;;21.11;29.59;98505.28;4910894;29;1313;-73
2022/07/19 12:12:59;;;;;;;;;;;;;;;21.21;29.63;98493.00;4912476;29;1348;-73
2022/07/19 12:15:25;;;;;;;;;;;;;;;21.11;29.51;98506.09;4867157;29;1234;-73
2022/07/19 12:17:56;;;;;;;;;;;;;;;21.01;29.61;98515.56;4863443;29;1047;-73
2022/07/19 12:20:22;;;;;;;;;;;;;;;21.25;29.33;98508.69;4847988;29;1992;-73
2022/07/19 12:22:47;;;;;;;;;;;;;;;21.25;29.25;98503.03;4863111;29;1064;-73
2022/07/19 12:25:12;;;;;;;;;;;;;;;21.14;29.52;98491.09;4863581;29;936;-73
2022/07/19 12:27:40;;;;;;;;;;;;;;;21.12;29.62;98499.19;4863311;29;960;-73
2022/07/19 12:30:06;;;;;;;;;;;;;;;21.21;29.27;98490.97;4847838;29;942;-73
2022/07/19 12:32:35;;;;;;;;;;;;;;;21.26;29.20;98489.69;4844179;29;1010;-73
2022/07/19 12:35:01;;;;;;;;;;;;;;;21.12;29.60;98479.38;4789726;30;927;-73
2022/07/19 12:37:34;;;;;;;;;;;;;;;21.18;29.59;98476.88;4771608;30;936;-73
2022/07/19 12:40:00;;;;;;;;;;;;;;;21.08;29.42;98481.47;4742481;30;1908;-73
2022/07/19 12:42:25;;;;;;;;;;;;;;;21.17;29.25;98473.25;4772380;30;1011;-73
2022/07/19 12:44:51;;;;;;;;;;;;;;;21.28;29.40;98479.50;4756974;30;1009;-73
2022/07/19 12:47:16;;;;;;;;;;;;;;;21.43;29.87;98485.75;4757167;30;971;-73
2022/07/19 12:49:43;;;;;;;;;;;;;;;21.64;29.75;98475.25;4771856;30;966;-73
2022/07/19 12:52:08;;;;;;;;;;;;;;;21.35;30.11;98483.47;4771867;30;937;-73
2022/07/19 12:54:33;;;;;;;;;;;;;;;21.53;29.97;98472.63;4771608;30;995;-73
2022/07/19 12:56:59;;;;;;;;;;;;;;;21.38;30.04;98477.75;4771510;30;1005;-73
2022/07/19 12:59:40;;;;;;;;;;;;;;;21.26;30.23;98484.81;4771468;30;1904;-73